Time;durP1;ratioP1;P1;durP2;ratioP2;P2;SDS_P1;SDS_P2;PMS_P1;PMS_P2;Temp;Humidity;BMP_temperature;BMP_pressure;BME280_temperature;BME280_humidity;BME280_pressure;Samples;Min_cycle;Max_cycle;Signal;HPM_P1;HPM_P2
2023/03/30 00:02:52;;;;;;;10.55;7.28;;;;;;;8.96;81.53;99602.53;10156379;29;20083;-77
2023/03/30 00:07:55;;;;;;;8.65;6.18;;;;;;;9.08;81.38;99608.69;10160066;29;20080;-78
2023/03/30 00:12:58;;;;;;;4.95;4.13;;;;;;;9.76;80.27;99590.13;10157783;29;20119;-78
2023/03/30 00:18:02;;;;;;;10.88;4.10;;;;;;;10.30;76.99;99585.28;10155300;29;20040;-77
2023/03/30 00:23:05;;;;;;;6.47;3.55;;;;;;;10.79;73.06;99581.53;10154688;29;20052;-77
2023/03/30 00:28:08;;;;;;;10.10;3.65;;;;;;;11.04;71.46;99580.03;10155145;29;20127;-78
2023/03/30 00:33:12;;;;;;;5.78;2.85;;;;;;;11.22;70.40;99576.63;10156317;29;20100;-78
2023/03/30 00:38:18;;;;;;;6.38;2.83;;;;;;;11.34;69.59;99575.41;10177985;29;20145;-77
2023/03/30 00:43:23;;;;;;;8.07;2.80;;;;;;;11.36;69.32;99567.22;10166807;29;20074;-78
2023/03/30 00:48:31;;;;;;;5.18;3.22;;;;;;;11.29;69.16;99542.75;10170966;29;20075;-77
2023/03/30 00:53:37;;;;;;;10.18;3.03;;;;;;;11.24;69.24;99548.59;10181010;29;20055;-77
2023/03/30 00:58:42;;;;;;;5.85;2.72;;;;;;;11.24;69.06;99536.97;10153492;29;20132;-78
2023/03/30 01:03:47;;;;;;;5.82;2.65;;;;;;;11.26;68.71;99530.44;10164332;29;20056;-77
2023/03/30 01:08:51;;;;;;;2.95;2.08;;;;;;;11.40;67.74;99530.94;10180088;29;20059;-77
2023/03/30 01:13:59;;;;;;;5.95;2.65;;;;;;;11.42;67.34;99523.56;10160425;29;20064;-77
2023/03/30 01:19:24;;;;;;;6.47;2.72;;;;;;;11.44;66.76;99503.63;10164448;29;20036;-77
2023/03/30 01:25:07;;;;;;;4.43;2.42;;;;;;;11.51;66.38;99519.97;10158533;29;20452;-78
2023/03/30 01:30:26;;;;;;;10.40;3.13;;;;;;;11.42;66.28;99502.91;10108560;29;20127;-77
2023/03/30 01:36:13;;;;;;;5.88;2.05;;;;;;;11.68;65.27;99500.34;10171544;29;20500;-77
2023/03/30 01:41:28;;;;;;;5.53;2.58;;;;;;;11.71;65.08;99494.66;10166507;29;20056;-77
2023/03/30 01:46:36;;;;;;;5.00;2.50;;;;;;;11.85;64.43;99473.59;10169271;29;20093;-77
2023/03/30 01:51:46;;;;;;;5.53;2.28;;;;;;;11.82;64.20;99480.13;10171720;29;20094;-78
2023/03/30 01:56:55;;;;;;;5.95;2.92;;;;;;;11.91;64.06;99446.91;10148697;29;20090;-77
2023/03/30 02:02:03;;;;;;;6.30;2.40;;;;;;;11.83;64.31;99432.53;10169312;29;20534;-77
2023/03/30 02:07:10;;;;;;;5.45;2.33;;;;;;;11.72;64.15;99433.63;10166121;29;20052;-77
2023/03/30 02:12:14;;;;;;;6.75;2.28;;;;;;;11.78;63.72;99440.22;10151647;29;20044;-77
2023/03/30 02:17:23;;;;;;;5.55;2.40;;;;;;;11.96;62.89;99441.06;10171500;29;20108;-76
2023/03/30 02:22:28;;;;;;;5.00;2.83;;;;;;;12.03;62.36;99443.94;10168686;29;20481;-77
2023/03/30 02:27:33;;;;;;;8.48;3.00;;;;;;;11.91;62.43;99440.66;10174157;29;20052;-77
2023/03/30 02:32:41;;;;;;;6.55;3.30;;;;;;;11.97;61.87;99440.03;10157503;29;20131;-77
2023/03/30 02:38:10;;;;;;;7.15;3.40;;;;;;;12.09;61.47;99440.63;10174321;29;20049;-77
2023/03/30 02:43:38;;;;;;;14.85;4.25;;;;;;;12.14;60.52;99432.94;10170031;29;20523;-77
2023/03/30 02:48:57;;;;;;;9.82;4.07;;;;;;;12.24;60.24;99436.38;10161553;29;20044;-77
2023/03/30 02:54:11;;;;;;;6.93;3.83;;;;;;;12.21;60.04;99425.91;10153412;29;20091;-76
2023/03/30 02:59:42;;;;;;;9.30;4.68;;;;;;;12.17;59.91;99411.06;10155607;29;20036;-76
2023/03/30 03:04:46;;;;;;;9.65;4.90;;;;;;;12.16;60.38;99402.16;10170301;29;20707;-77
2023/03/30 03:10:20;;;;;;;14.27;5.00;;;;;;;12.05;60.83;99390.81;10157245;29;20051;-76
2023/03/30 03:15:25;;;;;;;13.40;4.68;;;;;;;12.00;61.00;99399.34;10175087;29;20503;-77
2023/03/30 03:20:40;;;;;;;6.93;4.10;;;;;;;12.03;60.50;99404.41;10165819;29;20123;-77
2023/03/30 03:25:43;;;;;;;8.15;3.33;;;;;;;12.10;60.04;99400.09;10170229;29;20507;-78
2023/03/30 03:30:49;;;;;;;7.60;2.55;;;;;;;12.35;58.64;99398.44;10173979;29;20078;-77
2023/03/30 03:35:58;;;;;;;8.07;2.40;;;;;;;12.33;58.52;99378.88;10155395;29;20138;-77
2023/03/30 03:41:02;;;;;;;9.88;2.67;;;;;;;12.50;57.72;99366.34;10171441;29;20044;-76
2023/03/30 03:46:08;;;;;;;6.20;2.10;;;;;;;12.60;57.87;99350.06;10144384;29;20037;-77
2023/03/30 03:51:11;;;;;;;10.23;3.97;;;;;;;12.56;57.78;99336.09;10156612;29;20044;-77
2023/03/30 03:56:14;;;;;;;7.78;3.08;;;;;;;12.33;58.35;99329.59;10157101;29;20068;-77
2023/03/30 04:01:18;;;;;;;5.53;2.55;;;;;;;12.30;58.43;99343.38;10159644;29;20040;-77
2023/03/30 04:06:21;;;;;;;9.70;2.80;;;;;;;12.17;58.77;99351.84;10166737;29;20083;-77
2023/03/30 04:11:25;;;;;;;6.28;2.60;;;;;;;12.13;58.83;99337.88;10168343;29;20048;-77
2023/03/30 04:16:51;;;;;;;7.25;2.30;;;;;;;12.03;58.57;99338.97;10172347;29;20443;-75
2023/03/30 04:22:12;;;;;;;4.88;2.20;;;;;;;12.11;58.47;99345.25;10150993;29;20044;-77
2023/03/30 04:27:41;;;;;;;6.63;2.40;;;;;;;12.03;58.96;99339.81;10154720;29;20059;-77
2023/03/30 04:33:14;;;;;;;5.72;2.28;;;;;;;11.72;59.99;99334.91;10153749;29;20066;-77
2023/03/30 04:38:35;;;;;;;5.75;2.60;;;;;;;11.46;61.01;99342.09;10156016;29;20128;-77
2023/03/30 04:43:58;;;;;;;7.18;2.50;;;;;;;11.36;61.28;99328.75;10150690;29;20053;-77
2023/03/30 04:49:20;;;;;;;8.50;2.08;;;;;;;11.27;61.81;99337.72;10173644;29;20483;-77
2023/03/30 04:55:01;;;;;;;4.53;1.95;;;;;;;11.24;61.95;99333.53;10173040;29;20054;-77
2023/03/30 05:00:07;;;;;;;7.60;1.95;;;;;;;11.46;61.12;99337.59;10164747;29;20045;-77
2023/03/30 05:05:30;;;;;;;7.22;2.00;;;;;;;11.76;60.35;99321.97;10146655;29;20068;-77
2023/03/30 05:10:51;;;;;;;7.65;2.05;;;;;;;11.90;59.67;99323.25;10157953;29;20448;-77
2023/03/30 05:16:14;;;;;;;5.30;2.13;;;;;;;12.17;59.25;99330.31;10159206;29;20060;-77
2023/03/30 05:21:21;;;;;;;7.15;2.00;;;;;;;12.35;58.55;99314.13;10152042;29;20058;-77
2023/03/30 05:26:45;;;;;;;8.52;2.50;;;;;;;12.37;58.26;99312.13;10170686;29;20068;-77
2023/03/30 05:32:11;;;;;;;6.60;2.50;;;;;;;12.62;58.03;99322.97;10163795;29;20356;-77
2023/03/30 05:37:38;;;;;;;6.22;2.45;;;;;;;12.68;57.60;99323.16;10153889;29;20075;-77
2023/03/30 05:43:07;;;;;;;8.18;2.53;;;;;;;12.75;57.38;99308.03;10152625;29;20063;-77
2023/03/30 05:48:31;;;;;;;9.45;2.90;;;;;;;12.92;56.87;99306.22;10144559;29;20108;-77
2023/03/30 05:53:58;;;;;;;6.03;2.30;;;;;;;12.87;57.59;99310.41;10153632;29;20104;-77
2023/03/30 05:59:30;;;;;;;5.72;2.10;;;;;;;12.97;57.66;99293.09;10144407;29;20123;-77
2023/03/30 06:04:52;;;;;;;9.05;2.40;;;;;;;12.76;58.24;99290.84;10150757;29;20138;-77
2023/03/30 06:09:58;;;;;;;6.35;1.98;;;;;;;12.69;58.31;99268.25;10157842;29;20056;-77
2023/03/30 06:15:03;;;;;;;4.00;2.08;;;;;;;12.82;58.42;99282.09;10155401;29;20130;-77
2023/03/30 06:20:26;;;;;;;6.97;2.10;;;;;;;12.86;58.92;99273.66;10174197;29;20048;-77
2023/03/30 06:25:31;;;;;;;4.15;1.85;;;;;;;12.83;58.82;99283.81;10166670;29;20083;-76
2023/03/30 06:30:34;;;;;;;6.82;1.77;;;;;;;12.83;59.56;99281.09;10155274;29;20044;-77
2023/03/30 06:35:45;;;;;;;3.50;1.55;;;;;;;13.12;58.67;99285.16;10155729;29;20116;-77
2023/03/30 06:40:49;;;;;;;8.68;2.60;;;;;;;13.05;58.37;99287.72;10163623;29;20048;-77
2023/03/30 06:45:56;;;;;;;4.57;1.73;;;;;;;13.10;58.39;99289.03;10166797;29;20048;-77
2023/03/30 06:51:01;;;;;;;10.25;2.20;;;;;;;13.05;58.58;99292.22;10162124;29;20044;-77
2023/03/30 06:56:07;;;;;;;7.32;1.92;;;;;;;13.29;58.38;99299.50;10158329;29;20091;-77
2023/03/30 07:01:17;;;;;;;3.47;1.58;;;;;;;13.49;57.75;99302.72;10169492;29;20048;-77
2023/03/30 07:06:39;;;;;;;8.70;2.30;;;;;;;13.59;56.97;99302.56;10164972;29;20053;-77
2023/03/30 07:11:44;;;;;;;5.20;1.92;;;;;;;13.91;56.16;99298.97;10162743;29;20044;-77
2023/03/30 07:16:48;;;;;;;4.82;1.85;;;;;;;13.98;55.99;99299.09;10167202;29;20053;-77
2023/03/30 07:21:51;;;;;;;7.28;1.98;;;;;;;14.21;55.36;99291.13;10154691;29;20041;-77
2023/03/30 07:26:59;;;;;;;6.60;2.67;;;;;;;14.31;55.10;99300.69;10164770;29;20083;-77
2023/03/30 07:32:03;;;;;;;6.25;2.42;;;;;;;14.36;55.08;99287.50;10155462;29;20052;-77
2023/03/30 07:37:06;;;;;;;9.27;1.90;;;;;;;14.30;55.33;99300.88;10155978;29;20497;-77
2023/03/30 07:42:11;;;;;;;7.57;1.90;;;;;;;14.46;55.40;99300.84;10154419;29;20051;-77
2023/03/30 07:47:15;;;;;;;7.05;2.95;;;;;;;14.62;54.09;99297.22;10162759;29;20552;-77
2023/03/30 07:52:19;;;;;;;6.50;2.30;;;;;;;14.48;56.17;99308.75;10173923;29;20056;-77
2023/03/30 07:57:31;;;;;;;5.53;2.28;;;;;;;14.03;55.74;99304.84;10169003;29;20084;-77
2023/03/30 08:02:35;;;;;;;5.80;2.17;;;;;;;14.62;56.14;99293.66;10163464;29;20059;-78
2023/03/30 08:07:38;;;;;;;8.63;2.75;;;;;;;14.89;55.03;99304.00;10167141;29;20048;-77
2023/03/30 08:12:51;;;;;;;5.85;2.22;;;;;;;14.15;56.95;99319.63;10161886;29;20115;-77
2023/03/30 08:17:54;;;;;;;6.28;2.03;;;;;;;14.23;56.84;99306.09;10157705;29;20386;-77
2023/03/30 08:22:56;;;;;;;5.90;2.05;;;;;;;14.33;57.12;99303.22;10149935;29;20059;-77
2023/03/30 08:28:01;;;;;;;7.93;2.20;;;;;;;14.36;56.89;99295.59;10157016;29;20470;-78
2023/03/30 08:33:04;;;;;;;4.45;1.92;;;;;;;13.72;58.36;99313.69;10152783;29;20049;-77
2023/03/30 08:38:08;;;;;;;5.57;1.83;;;;;;;13.54;60.68;99311.16;10153681;29;20047;-78
2023/03/30 08:43:36;;;;;;;11.43;1.85;;;;;;;13.40;60.34;99326.16;10157256;29;20127;-77
2023/03/30 08:48:41;;;;;;;5.15;2.00;;;;;;;13.34;60.27;99297.13;10148541;29;20179;-77
2023/03/30 08:53:44;;;;;;;11.88;1.90;;;;;;;13.69;59.64;99306.75;10157170;29;20531;-77
2023/03/30 08:58:59;;;;;;;3.65;1.55;;;;;;;13.66;59.42;99319.75;10149733;29;20056;-78
2023/03/30 09:04:11;;;;;;;5.13;1.42;;;;;;;13.31;61.75;99316.34;10162378;29;20492;-77
2023/03/30 09:09:16;;;;;;;;;;;;;;;14.14;60.04;99318.81;10158566;29;20049;-77
2023/03/30 09:14:31;;;;;;;6.25;1.80;;;;;;;13.57;61.37;99320.75;10157797;29;19979;-77
2023/03/30 09:19:40;;;;;;;3.53;1.77;;;;;;;13.96;60.36;99318.19;10161541;29;20044;-78
2023/03/30 09:24:43;;;;;;;6.60;1.60;;;;;;;12.78;68.74;99337.34;10145343;29;20119;-77
2023/03/30 09:29:50;;;;;;;3.25;1.65;;;;;;;11.24;80.62;99355.03;10160294;29;20045;-77
2023/03/30 09:34:59;;;;;;;3.90;1.70;;;;;;;10.92;79.74;99371.63;10155067;29;20048;-78
2023/03/30 09:40:18;;;;;;;7.50;2.83;;;;;;;9.93;91.28;99384.78;10153691;29;20492;-78
2023/03/30 09:45:27;;;;;;;6.45;2.90;;;;;;;9.60;94.23;99416.41;10175051;29;20094;-78
2023/03/30 09:50:30;;;;;;;9.23;2.17;;;;;;;9.47;93.55;99383.66;10164547;29;20075;-79
2023/03/30 09:55:35;;;;;;;6.07;2.38;;;;;;;9.67;93.52;99373.78;10163790;29;20123;-81
2023/03/30 10:00:40;;;;;;;8.23;2.40;;;;;;;9.97;91.65;99382.66;10163053;29;20436;-80
2023/03/30 10:05:43;;;;;;;10.25;2.42;;;;;;;9.96;90.56;99397.06;10177891;29;20048;-79
2023/03/30 10:10:52;;;;;;;10.85;2.45;;;;;;;10.27;87.86;99411.09;10164579;29;20052;-78
2023/03/30 10:16:03;;;;;;;8.57;2.20;;;;;;;10.61;85.07;99400.63;10163514;29;20048;-78
2023/03/30 10:21:16;;;;;;;6.57;2.05;;;;;;;11.22;81.26;99405.41;10173044;29;20116;-79
2023/03/30 10:26:20;;;;;;;10.27;2.58;;;;;;;11.75;79.37;99408.25;10179145;29;20108;-79
2023/03/30 10:31:26;;;;;;;8.10;1.85;;;;;;;12.53;75.65;99419.91;10168032;29;20037;-78
2023/03/30 10:36:32;;;;;;;6.22;1.50;;;;;;;12.41;73.92;99412.25;10176712;29;20048;-78
2023/03/30 10:41:38;;;;;;;6.18;1.55;;;;;;;12.61;73.65;99408.31;10159051;29;20083;-78
2023/03/30 10:46:43;;;;;;;9.48;1.77;;;;;;;13.39;70.93;99391.91;10168269;29;20044;-79
2023/03/30 10:51:56;;;;;;;8.15;2.03;;;;;;;13.96;67.61;99380.28;10166681;29;20073;-78
2023/03/30 10:57:06;;;;;;;6.43;1.70;;;;;;;13.84;68.53;99381.63;10176832;29;20055;-78
2023/03/30 11:02:30;;;;;;;9.45;2.05;;;;;;;14.73;65.61;99377.91;10166129;29;20043;-77
2023/03/30 11:07:38;;;;;;;8.68;2.05;;;;;;;14.26;62.73;99372.44;10155151;29;20044;-80
2023/03/30 11:12:44;;;;;;;9.35;2.00;;;;;;;13.38;64.81;99387.50;10162091;29;20067;-78
2023/03/30 11:17:55;;;;;;;7.75;1.50;;;;;;;12.99;65.64;99389.94;10162023;29;20122;-78
2023/03/30 11:23:10;;;;;;;6.32;1.63;;;;;;;12.74;63.63;99384.47;10166585;29;20052;-76
2023/03/30 11:28:22;;;;;;;5.10;1.50;;;;;;;12.99;63.27;99389.94;10165689;29;20067;-77
2023/03/30 11:33:34;;;;;;;6.27;1.17;;;;;;;13.92;61.74;99395.13;10156810;29;20417;-77
2023/03/30 11:38:45;;;;;;;5.53;1.00;;;;;;;13.76;58.07;99385.19;10158079;29;20063;-77
2023/03/30 11:43:49;;;;;;;5.00;1.10;;;;;;;13.47;59.46;99378.44;10155312;29;20046;-78
2023/03/30 11:49:09;;;;;;;3.53;1.25;;;;;;;12.94;58.56;99403.06;10165264;29;20123;-77
2023/03/30 11:54:37;;;;;;;3.90;1.00;;;;;;;13.28;58.53;99395.75;10147912;29;20485;-77
2023/03/30 11:59:47;;;;;;;4.85;1.13;;;;;;;13.12;58.35;99368.75;10158311;29;20046;-77
2023/03/30 12:04:56;;;;;;;2.80;0.85;;;;;;;13.14;57.05;99379.38;10150204;29;20049;-76
2023/03/30 12:10:02;;;;;;;8.38;1.60;;;;;;;12.72;58.62;99394.56;10149085;29;20248;-77
2023/03/30 12:15:25;;;;;;;8.35;1.42;;;;;;;12.63;58.09;99394.69;10149639;29;20048;-77
2023/03/30 12:20:37;;;;;;;5.70;1.70;;;;;;;13.28;57.41;99401.13;10141993;29;20043;-77
2023/03/30 12:26:00;;;;;;;9.95;2.00;;;;;;;14.04;56.91;99407.28;10151583;29;20131;-77
2023/03/30 12:31:03;;;;;;;8.40;1.73;;;;;;;13.38;57.49;99408.25;10153423;29;20047;-77
2023/03/30 12:36:24;;;;;;;6.63;1.80;;;;;;;13.58;58.13;99388.06;10160682;29;20096;-77
2023/03/30 12:41:38;;;;;;;5.30;1.65;;;;;;;13.92;56.62;99393.25;10179135;29;20049;-77
2023/03/30 12:46:50;;;;;;;13.57;1.75;;;;;;;13.52;56.75;99375.25;10162249;29;20036;-77
2023/03/30 12:52:08;;;;;;;6.63;1.85;;;;;;;14.17;56.21;99368.94;10154049;29;20044;-77
2023/03/30 12:57:26;;;;;;;10.82;2.42;;;;;;;14.13;52.95;99383.81;10163869;29;20512;-76
2023/03/30 13:02:55;;;;;;;5.85;1.70;;;;;;;13.17;67.97;99424.88;10150892;29;20123;-77
2023/03/30 13:08:04;;;;;;;11.55;2.92;;;;;;;9.83;86.31;99410.75;10155282;29;20115;-77
2023/03/30 13:13:17;;;;;;;8.65;2.83;;;;;;;9.82;88.42;99396.50;10157584;29;20064;-77
2023/03/30 13:18:35;;;;;;;9.25;2.65;;;;;;;11.80;77.96;99414.00;10168669;29;20052;-77
2023/03/30 13:23:39;;;;;;;11.05;3.35;;;;;;;14.00;72.75;99397.81;10162266;29;20083;-77
2023/03/30 13:28:57;;;;;;;10.75;2.92;;;;;;;13.16;68.67;99396.22;10155574;29;20086;-77
2023/03/30 13:34:07;;;;;;;12.00;3.38;;;;;;;12.63;68.08;99392.84;10162317;29;20041;-77
2023/03/30 13:39:21;;;;;;;9.32;2.50;;;;;;;12.64;66.68;99399.91;10168840;29;20099;-77
2023/03/30 13:44:41;;;;;;;7.43;2.13;;;;;;;13.00;62.24;99403.28;10156267;29;20132;-77
2023/03/30 13:49:52;;;;;;;8.40;2.50;;;;;;;13.45;62.63;99407.44;10157908;29;20500;-77
2023/03/30 13:54:57;;;;;;;9.65;2.22;;;;;;;14.07;57.93;99397.97;10154917;29;20068;-75
2023/03/30 14:00:08;;;;;;;9.20;2.33;;;;;;;14.34;57.64;99402.13;10150929;29;20060;-77
2023/03/30 14:05:13;;;;;;;9.38;2.05;;;;;;;12.76;58.95;99398.63;10156290;29;20455;-77
2023/03/30 14:10:19;;;;;;;12.13;2.22;;;;;;;13.24;61.10;99421.34;10157177;29;20053;-77
2023/03/30 14:15:26;;;;;;;9.02;2.53;;;;;;;14.24;59.84;99388.00;10153387;29;20069;-77
2023/03/30 14:20:44;;;;;;;7.55;1.85;;;;;;;14.85;56.96;99409.94;10157612;29;20092;-78
2023/03/30 14:25:48;;;;;;;14.80;2.60;;;;;;;13.86;58.54;99407.44;10144544;29;20403;-77
2023/03/30 14:30:53;;;;;;;8.88;2.60;;;;;;;14.12;56.89;99412.66;10157051;29;20426;-77
2023/03/30 14:35:58;;;;;;;9.25;2.22;;;;;;;13.83;57.68;99394.28;10148841;29;20060;-76
2023/03/30 14:41:07;;;;;;;10.25;3.42;;;;;;;14.03;57.33;99418.25;10155432;29;20135;-76
2023/03/30 14:46:12;;;;;;;9.35;1.90;;;;;;;13.55;57.13;99426.16;10169155;29;20087;-76
2023/03/30 14:51:24;;;;;;;10.85;2.80;;;;;;;13.34;57.21;99441.94;10142628;29;20049;-76
2023/03/30 14:56:29;;;;;;;10.40;1.83;;;;;;;12.45;60.36;99462.97;10156096;29;20115;-77
2023/03/30 15:01:33;;;;;;;5.70;2.05;;;;;;;11.17;66.22;99474.06;10149048;29;20437;-77
2023/03/30 15:06:37;;;;;;;10.93;2.30;;;;;;;10.58;70.15;99478.81;10163394;29;20139;-77
2023/03/30 15:11:44;;;;;;;3.63;1.38;;;;;;;10.55;72.42;99503.28;10151912;29;20154;-76
2023/03/30 15:16:52;;;;;;;5.72;1.50;;;;;;;10.56;75.56;99488.88;10169736;29;20131;-77
2023/03/30 15:21:58;;;;;;;4.22;1.20;;;;;;;10.38;75.58;99494.97;10149060;29;20052;-77
2023/03/30 15:27:05;;;;;;;6.05;1.15;;;;;;;11.08;72.54;99488.34;10155266;29;20080;-77
2023/03/30 15:32:15;;;;;;;10.02;1.55;;;;;;;11.36;70.89;99482.00;10150583;29;20155;-77
2023/03/30 15:37:22;;;;;;;7.30;0.95;;;;;;;11.49;69.23;99466.34;10149847;29;20052;-77
2023/03/30 15:42:29;;;;;;;4.60;1.10;;;;;;;11.31;69.15;99475.41;10157004;29;20053;-76
2023/03/30 15:47:33;;;;;;;4.63;1.10;;;;;;;11.29;69.22;99467.47;10144419;29;20507;-76
2023/03/30 15:52:41;;;;;;;5.38;1.48;;;;;;;11.47;69.12;99465.66;10157094;29;20054;-76
2023/03/30 15:57:47;;;;;;;5.25;1.60;;;;;;;11.25;70.56;99480.38;10145193;29;20036;-76
2023/03/30 16:02:56;;;;;;;5.18;1.90;;;;;;;11.94;69.08;99465.41;10149455;29;20468;-77
2023/03/30 16:08:00;;;;;;;5.05;2.00;;;;;;;12.43;67.22;99470.34;10156146;29;20047;-77
2023/03/30 16:13:05;;;;;;;4.32;1.90;;;;;;;12.70;66.00;99466.66;10162775;29;20052;-77
2023/03/30 16:18:10;;;;;;;4.95;1.67;;;;;;;13.21;63.79;99458.59;10165714;29;20108;-77
2023/03/30 16:23:13;;;;;;;6.00;1.33;;;;;;;12.93;64.58;99466.91;10160261;29;20060;-77
2023/03/30 16:28:18;;;;;;;4.95;1.77;;;;;;;12.65;66.24;99462.75;10152791;29;20049;-78
2023/03/30 16:33:21;;;;;;;9.40;3.15;;;;;;;12.74;66.50;99456.38;10150705;29;20135;-77
2023/03/30 16:38:24;;;;;;;8.60;2.53;;;;;;;12.37;67.17;99461.06;10157168;29;20516;-76
2023/03/30 16:43:28;;;;;;;5.13;2.47;;;;;;;11.72;68.84;99466.72;10144088;29;20069;-77
2023/03/30 16:48:31;;;;;;;7.90;2.78;;;;;;;12.74;66.87;99469.84;10155587;29;20044;-78
2023/03/30 16:53:34;;;;;;;4.15;2.28;;;;;;;12.38;67.02;99467.28;10158064;29;20044;-77
2023/03/30 16:58:38;;;;;;;8.35;2.13;;;;;;;12.39;65.98;99463.56;10148690;29;20123;-77
2023/03/30 17:03:41;;;;;;;8.50;2.55;;;;;;;12.04;67.32;99465.34;10155287;29;20049;-77
2023/03/30 17:08:45;;;;;;;6.43;2.08;;;;;;;12.34;66.46;99457.81;10142408;29;20044;-77
2023/03/30 17:13:50;;;;;;;6.22;2.00;;;;;;;12.26;66.50;99455.03;10144340;28;20040;-76
2023/03/30 17:18:52;;;;;;;7.80;2.45;;;;;;;11.68;69.24;99476.13;10154863;29;20083;-76
2023/03/30 17:23:55;;;;;;;5.88;2.08;;;;;;;10.38;75.94;99500.34;10157216;29;20082;-76
2023/03/30 17:29:00;;;;;;;8.43;1.98;;;;;;;9.63;85.15;99476.94;10173309;29;20096;-80
2023/03/30 17:34:02;;;;;;;6.78;1.65;;;;;;;9.29;87.19;99496.06;10160487;29;20072;-78
2023/03/30 17:39:06;;;;;;;8.05;1.73;;;;;;;9.16;88.08;99492.78;10164518;29;20076;-79
2023/03/30 17:44:10;;;;;;;5.93;2.20;;;;;;;8.97;89.04;99509.69;10175944;29;20455;-79
2023/03/30 17:49:16;;;;;;;9.27;2.58;;;;;;;9.41;87.81;99499.50;10166848;29;20056;-77
2023/03/30 17:54:19;;;;;;;8.57;2.78;;;;;;;9.39;88.19;99510.34;10171511;29;20465;-78
2023/03/30 17:59:24;;;;;;;7.80;2.78;;;;;;;9.87;86.28;99501.56;10164988;29;20052;-79
2023/03/30 18:04:27;;;;;;;7.78;3.00;;;;;;;9.97;85.65;99506.91;10156072;29;20885;-77
2023/03/30 18:09:30;;;;;;;8.45;2.95;;;;;;;9.93;85.42;99503.66;10167219;29;20052;-78
2023/03/30 18:14:34;;;;;;;8.82;3.53;;;;;;;10.02;84.63;99490.38;10157639;29;20417;-78
2023/03/30 18:19:37;;;;;;;7.40;3.20;;;;;;;9.95;83.58;99514.22;10159135;29;20121;-78
2023/03/30 18:24:41;;;;;;;14.48;3.55;;;;;;;9.86;82.86;99512.41;10170972;29;20424;-78
2023/03/30 18:29:45;;;;;;;11.77;3.63;;;;;;;10.19;81.92;99516.47;10168873;29;20060;-78
2023/03/30 18:34:48;;;;;;;12.88;3.65;;;;;;;9.59;87.68;99521.09;10191546;29;20476;-80
2023/03/30 18:39:51;;;;;;;6.55;4.40;;;;;;;9.53;88.45;99529.69;10176072;29;20555;-79
2023/03/30 18:44:55;;;;;;;17.48;5.30;;;;;;;9.85;85.83;99529.47;10171949;29;20036;-77
2023/03/30 18:49:58;;;;;;;14.38;4.63;;;;;;;9.77;85.54;99530.16;10211647;29;20075;-79
2023/03/30 18:55:01;;;;;;;10.18;4.68;;;;;;;9.72;84.71;99533.25;10181384;29;20044;-79
2023/03/30 19:00:14;;;;;;;16.00;4.80;;;;;;;10.06;83.86;99534.72;10181262;29;20410;-79
2023/03/30 19:05:19;;;;;;;11.50;4.90;;;;;;;10.29;83.03;99529.91;10165820;29;20661;-79
2023/03/30 19:10:26;;;;;;;15.82;5.30;;;;;;;10.31;82.50;99531.47;10180360;29;20060;-79
2023/03/30 19:15:32;;;;;;;12.38;4.13;;;;;;;10.30;82.19;99521.69;10163932;29;20036;-78
2023/03/30 19:20:38;;;;;;;6.63;2.85;;;;;;;10.09;82.15;99529.06;10165357;29;20044;-77
2023/03/30 19:25:42;;;;;;;10.73;3.55;;;;;;;10.16;82.25;99525.66;10153809;29;20136;-78
2023/03/30 19:30:47;;;;;;;9.25;2.88;;;;;;;9.93;82.65;99527.81;10165932;29;20048;-78
2023/03/30 19:35:50;;;;;;;13.40;3.70;;;;;;;10.09;81.63;99526.38;10161824;29;20124;-77
2023/03/30 19:40:53;;;;;;;5.20;3.00;;;;;;;10.04;81.06;99536.69;10161172;29;20040;-78
2023/03/30 19:45:57;;;;;;;12.18;4.18;;;;;;;9.98;82.04;99523.84;10180504;29;20055;-78
2023/03/30 19:51:01;;;;;;;19.17;3.08;;;;;;;9.96;81.50;99526.69;10164476;29;20051;-78
2023/03/30 19:56:09;;;;;;;9.38;2.88;;;;;;;9.72;82.27;99517.16;10173339;29;20050;-78
2023/03/30 20:01:13;;;;;;;10.70;2.30;;;;;;;9.83;81.50;99537.63;10159368;29;20452;-77
2023/03/30 20:06:16;;;;;;;9.10;2.10;;;;;;;10.05;80.27;99509.72;10150386;29;20127;-78
2023/03/30 20:11:18;;;;;;;2.95;1.35;;;;;;;9.89;80.41;99525.53;10157409;29;20088;-76
2023/03/30 20:16:24;;;;;;;6.22;1.77;;;;;;;10.10;79.46;99509.31;10150994;29;20039;-77
2023/03/30 20:21:27;;;;;;;8.90;2.03;;;;;;;9.89;80.08;99507.59;10155565;29;20044;-78
2023/03/30 20:26:31;;;;;;;7.18;2.30;;;;;;;9.85;80.98;99527.63;10156599;29;20040;-77
2023/03/30 20:31:35;;;;;;;9.88;2.83;;;;;;;10.09;80.74;99500.41;10169963;29;20041;-77
2023/03/30 20:36:39;;;;;;;5.88;1.92;;;;;;;9.94;81.17;99504.50;10160156;29;20047;-78
2023/03/30 20:41:42;;;;;;;11.73;2.70;;;;;;;9.95;81.22;99498.13;10159278;29;20060;-78
2023/03/30 20:46:46;;;;;;;4.40;2.60;;;;;;;10.14;80.14;99498.13;10152142;29;20119;-78
2023/03/30 20:51:49;;;;;;;10.18;1.80;;;;;;;10.25;78.95;99510.53;10177671;29;20068;-78
2023/03/30 20:56:52;;;;;;;8.45;2.00;;;;;;;10.35;78.84;99495.25;10199006;29;20076;-79
2023/03/30 21:01:57;;;;;;;5.30;2.30;;;;;;;10.21;78.58;99493.03;10167283;29;20084;-79
2023/03/30 21:07:00;;;;;;;7.50;2.78;;;;;;;10.47;77.55;99481.66;10173823;29;20042;-78
2023/03/30 21:12:04;;;;;;;6.53;1.70;;;;;;;10.61;77.25;99478.50;10184153;29;20052;-76
2023/03/30 21:17:08;;;;;;;8.05;2.08;;;;;;;10.74;76.57;99479.03;10180653;29;20131;-76
2023/03/30 21:22:11;;;;;;;10.38;2.50;;;;;;;10.56;76.77;99470.91;10175384;29;20048;-77
2023/03/30 21:27:14;;;;;;;6.22;2.60;;;;;;;10.69;76.61;99467.88;10163920;29;20048;-78
2023/03/30 21:32:18;;;;;;;11.18;3.10;;;;;;;10.64;77.52;99455.88;10168609;29;20448;-78
2023/03/30 21:37:21;;;;;;;11.77;3.42;;;;;;;10.59;78.25;99443.75;10160602;29;20044;-78
2023/03/30 21:42:24;;;;;;;10.38;3.17;;;;;;;10.50;78.88;99439.25;10164221;29;20048;-77
2023/03/30 21:47:28;;;;;;;9.02;3.00;;;;;;;10.43;79.91;99429.28;10161714;29;20044;-76
2023/03/30 21:52:32;;;;;;;6.28;3.00;;;;;;;10.43;80.13;99432.81;10160273;29;20111;-78
2023/03/30 21:57:35;;;;;;;12.02;4.18;;;;;;;10.34;80.18;99420.28;10161314;29;20044;-78
2023/03/30 22:02:39;;;;;;;9.25;3.15;;;;;;;10.22;80.32;99424.09;10164589;29;20040;-76
2023/03/30 22:07:42;;;;;;;10.70;3.28;;;;;;;9.99;80.28;99421.75;10175242;29;20400;-78
2023/03/30 22:12:45;;;;;;;6.88;2.75;;;;;;;10.09;79.64;99421.72;10159339;29;20551;-78
2023/03/30 22:17:49;;;;;;;7.50;3.05;;;;;;;10.00;79.69;99417.22;10164120;29;20464;-77
2023/03/30 22:22:52;;;;;;;10.15;3.30;;;;;;;10.00;78.94;99410.03;10150277;29;20055;-78
2023/03/30 22:27:56;;;;;;;9.05;2.72;;;;;;;9.96;78.79;99403.28;10166835;29;20049;-77
2023/03/30 22:33:01;;;;;;;8.20;2.88;;;;;;;9.62;79.08;99408.22;10169914;29;20139;-77
2023/03/30 22:38:04;;;;;;;7.78;2.78;;;;;;;9.81;78.94;99397.47;10162100;29;20063;-77
2023/03/30 22:43:08;;;;;;;14.50;3.63;;;;;;;10.02;77.98;99397.31;10159992;29;20404;-78
2023/03/30 22:48:12;;;;;;;11.38;3.03;;;;;;;9.85;78.18;99396.19;10180698;29;20037;-76
2023/03/30 22:53:15;;;;;;;12.32;2.97;;;;;;;10.15;76.36;99389.81;10176928;29;20103;-77
2023/03/30 22:58:18;;;;;;;9.13;2.83;;;;;;;10.04;76.60;99383.75;10159891;29;20087;-77
2023/03/30 23:03:22;;;;;;;7.22;2.80;;;;;;;10.12;76.43;99379.38;10168168;29;20051;-77
2023/03/30 23:08:25;;;;;;;11.65;3.88;;;;;;;9.81;77.14;99378.69;10159878;29;20040;-77
2023/03/30 23:13:28;;;;;;;10.60;3.13;;;;;;;9.93;76.11;99377.56;10154235;29;20449;-77
2023/03/30 23:18:32;;;;;;;6.18;2.30;;;;;;;10.02;75.42;99359.75;10153292;29;20092;-77
2023/03/30 23:23:36;;;;;;;6.60;2.55;;;;;;;10.04;75.55;99367.66;10161424;29;20048;-77
2023/03/30 23:28:41;;;;;;;7.13;2.53;;;;;;;10.20;75.05;99364.34;10159941;29;20369;-78
2023/03/30 23:33:45;;;;;;;8.32;2.28;;;;;;;10.23;74.72;99356.00;10157893;29;20052;-76
2023/03/30 23:38:50;;;;;;;6.88;1.85;;;;;;;10.26;74.12;99356.56;10160504;29;20048;-78
2023/03/30 23:43:53;;;;;;;11.02;2.05;;;;;;;10.29;73.87;99350.06;10148315;29;20419;-77
2023/03/30 23:48:57;;;;;;;7.25;1.65;;;;;;;10.47;73.06;99347.44;10180597;29;20044;-78
2023/03/30 23:54:04;;;;;;;8.10;1.88;;;;;;;10.32;73.00;99337.19;10166683;29;20498;-77